createdAt,value
2023-10-04T00:03:54.910Z,964.97
2023-10-04T00:18:56.728Z,964.93
2023-10-04T00:33:58.374Z,964.93
2023-10-04T00:49:00.038Z,964.91
2023-10-04T01:04:01.866Z,965.08
2023-10-04T01:19:03.787Z,965.18
2023-10-04T01:34:05.529Z,965.24
2023-10-04T01:49:07.157Z,964.96
2023-10-04T02:04:08.776Z,965.24
2023-10-04T02:19:10.410Z,965.51
2023-10-04T02:34:12.051Z,965.82
2023-10-04T02:49:13.766Z,965.9
2023-10-04T03:04:15.382Z,966.02
2023-10-04T03:19:17.090Z,966.15
2023-10-04T03:34:18.961Z,966.13
2023-10-04T03:49:20.745Z,966.1
2023-10-04T04:04:22.670Z,966.01
2023-10-04T04:19:24.469Z,966.11
2023-10-04T04:34:26.164Z,966.25
2023-10-04T04:49:27.781Z,966.41
2023-10-04T05:04:29.444Z,966.41
2023-10-04T05:19:31.163Z,966.3
2023-10-04T05:34:32.778Z,966.46
2023-10-04T05:49:34.596Z,966.2
2023-10-04T06:04:36.337Z,966.31
2023-10-04T06:19:38.071Z,966.4
2023-10-04T06:34:39.715Z,966.51
2023-10-04T06:49:41.329Z,966.37
2023-10-04T07:04:42.982Z,966.36
2023-10-04T07:19:44.718Z,966.28
2023-10-04T07:34:46.305Z,966.23
2023-10-04T07:49:47.892Z,966.27
2023-10-04T08:04:49.499Z,966.52
2023-10-04T08:19:51.081Z,966.37
2023-10-04T08:34:52.637Z,966.53
2023-10-04T08:49:54.360Z,966.45
2023-10-04T09:04:56.080Z,966.69
2023-10-04T09:19:57.762Z,966.61
2023-10-04T09:34:59.541Z,966.54
2023-10-04T09:50:02.516Z,966.66
2023-10-04T10:05:04.439Z,966.74
2023-10-04T10:20:06.200Z,966.74
2023-10-04T10:35:07.914Z,966.52
2023-10-04T10:50:09.746Z,966.75
2023-10-04T11:05:11.422Z,967
2023-10-04T11:20:13.158Z,966.98
2023-10-04T11:35:14.854Z,967.13
2023-10-04T11:50:16.585Z,967.2
2023-10-04T12:05:18.282Z,967.14
2023-10-04T12:20:19.960Z,967.15
2023-10-04T12:35:21.652Z,967.14
2023-10-04T12:50:23.407Z,967.33
2023-10-04T13:05:25.081Z,967.5
2023-10-04T13:20:26.798Z,967.54
2023-10-04T13:35:28.556Z,967.51
2023-10-04T13:50:30.190Z,967.68
2023-10-04T14:05:31.867Z,967.74
2023-10-04T14:20:33.533Z,967.84
2023-10-04T14:35:35.158Z,967.81
2023-10-04T14:50:39.887Z,967.99
2023-10-04T15:05:42.372Z,968.08
2023-10-04T15:20:44.180Z,968.37
2023-10-04T15:35:46.069Z,968.63
2023-10-04T15:50:47.731Z,968.92
2023-10-04T16:05:49.433Z,968.92
2023-10-04T16:20:51.119Z,968.9
2023-10-04T16:35:52.804Z,969.03
2023-10-04T16:50:54.505Z,968.93
2023-10-04T17:05:56.225Z,968.82
2023-10-04T17:20:57.978Z,968.86
2023-10-04T17:35:59.852Z,968.78
2023-10-04T17:51:01.678Z,968.8
2023-10-04T18:06:03.385Z,968.48
2023-10-04T18:21:05.089Z,968.35
2023-10-04T18:36:06.812Z,968.47
2023-10-04T18:51:08.602Z,968.26
2023-10-04T19:06:10.360Z,968.26
2023-10-04T19:21:12.015Z,968.22
2023-10-04T19:36:13.655Z,968.13
2023-10-04T19:51:15.278Z,968.31
2023-10-04T20:06:16.885Z,968.17
2023-10-04T20:21:18.539Z,968.23
2023-10-04T20:36:20.183Z,968.13
2023-10-04T20:51:21.825Z,968.1
2023-10-04T21:06:23.559Z,968.17
2023-10-04T21:21:25.207Z,968.08
2023-10-04T21:36:26.888Z,968.11
2023-10-04T21:51:28.526Z,968.27
2023-10-04T22:06:30.204Z,968.35
2023-10-04T22:21:31.867Z,968.36
2023-10-04T22:36:36.484Z,968.42
2023-10-04T22:51:38.456Z,968.51
2023-10-04T23:06:40.124Z,968.57
2023-10-04T23:21:41.887Z,968.71
2023-10-04T23:36:43.537Z,968.8
2023-10-04T23:51:45.293Z,968.78
